createdAt,value
2018-05-11T00:00:29.498Z,97370.05
2018-05-11T00:03:01.076Z,97383.58
2018-05-11T00:05:34.780Z,97381.47
2018-05-11T00:08:07.233Z,97386.80
2018-05-11T00:10:48.946Z,97389.09
2018-05-11T00:13:22.857Z,97381.26
2018-05-11T00:16:02.991Z,97384.47
2018-05-11T00:18:39.651Z,97371.19
2018-05-11T00:21:12.447Z,97369.70
2018-05-11T00:23:48.479Z,97378.52
2018-05-11T00:26:23.080Z,97381.27
2018-05-11T00:28:54.885Z,97381.65
2018-05-11T00:31:25.584Z,97380.63
2018-05-11T00:33:54.579Z,97380.80
2018-05-11T00:36:24.239Z,97378.63
2018-05-11T00:38:53.800Z,97378.39
2018-05-11T00:41:22.781Z,97376.18
2018-05-11T00:43:51.588Z,97382.13
2018-05-11T00:46:20.758Z,97386.14
2018-05-11T00:48:49.783Z,97384.59
2018-05-11T00:51:19.516Z,97393.78
2018-05-11T00:53:49.121Z,97395.02
2018-05-11T00:56:18.012Z,97398.05
2018-05-11T00:58:46.826Z,97396.05
2018-05-11T01:01:16.048Z,97398.14
2018-05-11T01:03:44.790Z,97401.02
2018-05-11T01:06:13.631Z,97399.52
2018-05-11T01:08:42.609Z,97397.95
2018-05-11T01:11:12.113Z,97398.70
2018-05-11T01:13:42.063Z,97395.17
2018-05-11T01:16:10.922Z,97398.70
2018-05-11T01:18:39.682Z,97395.95
2018-05-11T01:21:09.237Z,97401.58
2018-05-11T01:23:37.993Z,97409.53
2018-05-11T01:26:06.783Z,97397.66
2018-05-11T01:28:35.537Z,97398.23
2018-05-11T01:31:04.584Z,97396.85
2018-05-11T01:33:33.438Z,97404.98
2018-05-11T01:36:02.213Z,97399.44
2018-05-11T01:38:30.994Z,97399.08
2018-05-11T01:40:59.727Z,97403.86
2018-05-11T01:43:28.643Z,97405.98
2018-05-11T01:45:59.448Z,97416.13
2018-05-11T01:48:28.273Z,97417.84
2018-05-11T01:50:58.650Z,97420.80
2018-05-11T01:53:28.389Z,97423.46
2018-05-11T01:55:58.988Z,97416.14
2018-05-11T01:58:28.392Z,97416.91
2018-05-11T02:01:00.178Z,97417.64
2018-05-11T02:03:36.047Z,97416.10
2018-05-11T02:06:11.689Z,97418.98
2018-05-11T02:08:48.724Z,97417.66
2018-05-11T02:11:21.527Z,97418.48
2018-05-11T02:13:56.970Z,97419.78
2018-05-11T02:16:31.898Z,97434.03
2018-05-11T02:19:06.392Z,97428.19
2018-05-11T02:21:39.042Z,97430.72
2018-05-11T02:24:11.581Z,97435.87
2018-05-11T02:26:46.876Z,97430.08
2018-05-11T02:29:21.252Z,97432.60
2018-05-11T02:31:55.138Z,97434.63
2018-05-11T02:34:32.677Z,97440.77
2018-05-11T02:37:09.416Z,97432.16
2018-05-11T02:39:41.795Z,97438.53
2018-05-11T02:42:16.839Z,97447.03
2018-05-11T02:44:51.688Z,97446.05
2018-05-11T02:47:25.271Z,97449.08
2018-05-11T02:50:02.301Z,97455.22
2018-05-11T02:52:33.246Z,97451.20
2018-05-11T02:55:04.188Z,97453.55
2018-05-11T02:57:38.445Z,97448.01
2018-05-11T03:00:14.020Z,97452.80
2018-05-11T03:02:47.928Z,97462.13
2018-05-11T03:05:22.001Z,97468.67
2018-05-11T03:07:53.725Z,97465.20
2018-05-11T03:10:27.093Z,97466.52
2018-05-11T03:13:01.489Z,97471.11
2018-05-11T03:15:36.361Z,97474.67
2018-05-11T03:18:10.439Z,97484.02
2018-05-11T03:20:48.123Z,97492.75
2018-05-11T03:23:17.295Z,97496.65
2018-05-11T03:25:46.065Z,97493.15
2018-05-11T03:28:14.843Z,97491.45
2018-05-11T03:30:44.401Z,97494.67
2018-05-11T03:33:13.147Z,97492.64
2018-05-11T03:35:41.934Z,97492.81
2018-05-11T03:38:10.698Z,97504.78
2018-05-11T03:40:39.605Z,97501.06
2018-05-11T03:43:08.406Z,97506.19
2018-05-11T03:45:37.145Z,97507.84
2018-05-11T03:48:06.691Z,97507.75
2018-05-11T03:50:35.513Z,97510.07
2018-05-11T03:53:04.271Z,97515.33
2018-05-11T03:55:33.095Z,97521.58
2018-05-11T03:58:01.865Z,97521.63
2018-05-11T04:00:30.620Z,97527.14
2018-05-11T04:03:11.878Z,97523.83
2018-05-11T04:05:53.188Z,97537.08
2018-05-11T04:08:33.585Z,97535.20
2018-05-11T04:11:02.309Z,97533.70
2018-05-11T04:13:31.828Z,97535.61
2018-05-11T04:16:00.619Z,97538.00
2018-05-11T04:18:31.034Z,97540.27
2018-05-11T04:21:00.392Z,97543.99
2018-05-11T04:23:30.272Z,97539.05
2018-05-11T04:25:59.039Z,97552.20
2018-05-11T04:28:27.836Z,97551.92
2018-05-11T04:30:57.354Z,97557.05
2018-05-11T04:33:26.902Z,97558.47
2018-05-11T04:35:55.683Z,97563.55
2018-05-11T04:38:24.431Z,97564.84
2018-05-11T04:40:53.946Z,97571.14
2018-05-11T04:43:22.683Z,97573.58
2018-05-11T04:45:51.432Z,97577.23
2018-05-11T04:48:20.171Z,97579.83
2018-05-11T04:50:48.932Z,97574.62
2018-05-11T04:53:17.659Z,97580.94
2018-05-11T04:55:47.161Z,97580.79
2018-05-11T04:58:15.958Z,97578.97
2018-05-11T05:00:44.721Z,97585.73
2018-05-11T05:03:13.474Z,97580.84
2018-05-11T05:05:42.261Z,97582.16
2018-05-11T05:08:11.265Z,97584.43
2018-05-11T05:10:40.021Z,97589.05
2018-05-11T05:13:08.785Z,97585.63
2018-05-11T05:15:38.322Z,97595.95
2018-05-11T05:18:07.071Z,97593.53
2018-05-11T05:20:35.872Z,97599.85
2018-05-11T05:23:04.629Z,97594.67
2018-05-11T05:25:33.419Z,97598.73
2018-05-11T05:28:02.603Z,97590.61
2018-05-11T05:30:31.394Z,97598.74
2018-05-11T05:33:01.165Z,97590.13
2018-05-11T05:35:30.924Z,97595.27
2018-05-11T05:37:59.653Z,97591.28
2018-05-11T05:40:29.182Z,97598.75
2018-05-11T05:42:57.925Z,97591.55
2018-05-11T05:45:26.669Z,97588.73
2018-05-11T05:47:55.849Z,97591.13
2018-05-11T05:50:24.650Z,97599.63
2018-05-11T05:52:53.435Z,97597.70
2018-05-11T05:55:22.201Z,97601.84
2018-05-11T05:57:51.756Z,97599.72
2018-05-11T06:00:20.510Z,97599.69
2018-05-11T06:02:49.266Z,97601.80
2018-05-11T06:05:18.075Z,97605.45
2018-05-11T06:07:46.848Z,97614.28
2018-05-11T06:10:15.885Z,97612.48
2018-05-11T06:12:44.692Z,97617.50
2018-05-11T06:15:13.448Z,97618.05
2018-05-11T06:17:42.175Z,97619.03
2018-05-11T06:20:10.941Z,97616.79
2018-05-11T06:22:39.727Z,97614.31
2018-05-11T06:25:08.529Z,97621.59
2018-05-11T06:27:37.336Z,97622.52
2018-05-11T06:30:06.130Z,97628.42
2018-05-11T06:32:35.704Z,97633.50
2018-05-11T06:35:07.152Z,97627.36
2018-05-11T06:37:35.901Z,97636.31
2018-05-11T06:40:04.965Z,97629.23
2018-05-11T06:42:33.737Z,97631.88
2018-05-11T06:45:02.494Z,97636.04
2018-05-11T06:47:31.469Z,97634.52
2018-05-11T06:50:02.139Z,97636.36
2018-05-11T06:52:31.472Z,97633.58
2018-05-11T06:55:01.414Z,97630.94
2018-05-11T06:57:30.192Z,97635.53
2018-05-11T06:59:59.007Z,97638.70
2018-05-11T07:02:27.741Z,97640.32
2018-05-11T07:04:56.497Z,97632.41
2018-05-11T07:07:26.077Z,97628.27
2018-05-11T07:09:54.788Z,97633.94
2018-05-11T07:12:23.575Z,97635.05
2018-05-11T07:14:52.370Z,97634.78
2018-05-11T07:17:21.134Z,97639.16
2018-05-11T07:19:49.898Z,97636.42
2018-05-11T07:22:18.643Z,97639.59
2018-05-11T07:24:47.427Z,97639.72
2018-05-11T07:27:16.227Z,97637.92
2018-05-11T07:29:44.985Z,97636.77
2018-05-11T07:32:13.875Z,97636.66
2018-05-11T07:34:42.602Z,97637.39
2018-05-11T07:37:11.358Z,97627.87
2018-05-11T07:39:40.107Z,97633.92
2018-05-11T07:42:08.950Z,97637.50
2018-05-11T07:44:37.690Z,97637.42
2018-05-11T07:47:06.508Z,97638.48
2018-05-11T07:49:35.273Z,97641.45
2018-05-11T07:52:04.638Z,97641.94
2018-05-11T07:54:33.444Z,97644.80
2018-05-11T07:57:02.185Z,97641.64
2018-05-11T07:59:31.888Z,97653.05
2018-05-11T08:02:00.664Z,97649.78
2018-05-11T08:04:29.423Z,97650.45
2018-05-11T08:06:58.214Z,97653.86
2018-05-11T08:09:28.114Z,97650.77
2018-05-11T08:11:56.844Z,97653.36
2018-05-11T08:14:25.796Z,97649.92
2018-05-11T08:16:54.347Z,97651.66
2018-05-11T08:19:23.867Z,97653.42
2018-05-11T08:21:52.635Z,97658.50
2018-05-11T08:24:21.365Z,97653.55
2018-05-11T08:26:50.276Z,97650.62
2018-05-11T08:29:18.933Z,97653.62
2018-05-11T08:31:47.668Z,97664.45
2018-05-11T08:34:16.478Z,97657.34
2018-05-11T08:36:45.284Z,97661.80
2018-05-11T08:39:14.153Z,97661.39
2018-05-11T08:41:42.961Z,97666.20
2018-05-11T08:44:11.730Z,97669.31
2018-05-11T08:46:40.501Z,97670.27
2018-05-11T08:49:09.247Z,97664.98
2018-05-11T08:51:38.097Z,97663.80
2018-05-11T08:54:06.852Z,97661.86
2018-05-11T08:56:35.697Z,97668.02
2018-05-11T08:59:04.520Z,97660.45
2018-05-11T09:01:33.234Z,97662.67
2018-05-11T09:04:02.301Z,97666.34
2018-05-11T09:06:32.138Z,97658.16
2018-05-11T09:09:00.922Z,97661.92
2018-05-11T09:11:29.777Z,97655.08
2018-05-11T09:13:58.516Z,97646.75
2018-05-11T09:16:27.305Z,97652.13
2018-05-11T09:18:56.194Z,97652.09
2018-05-11T09:21:25.033Z,97654.48
2018-05-11T09:23:54.769Z,97659.77
2018-05-11T09:26:23.580Z,97663.30
2018-05-11T09:28:52.489Z,97670.83
2018-05-11T09:31:21.299Z,97664.49
2018-05-11T09:33:50.065Z,97664.36
2018-05-11T09:36:18.868Z,97670.97
2018-05-11T09:38:48.408Z,97657.43
2018-05-11T09:41:17.242Z,97654.45
2018-05-11T09:43:46.012Z,97649.20
2018-05-11T09:46:14.778Z,97658.11
2018-05-11T09:48:45.376Z,97655.08
2018-05-11T09:51:14.200Z,97665.28
2018-05-11T09:53:43.017Z,97658.02
2018-05-11T09:56:11.809Z,97654.13
2018-05-11T10:01:03.110Z,97657.53
2018-05-11T10:03:32.735Z,97665.00
2018-05-11T10:06:02.126Z,97655.19
2018-05-11T10:08:30.851Z,97669.34
2018-05-11T10:10:59.680Z,97664.05
2018-05-11T10:13:28.482Z,97665.64
2018-05-11T10:15:57.197Z,97671.94
2018-05-11T10:18:26.028Z,97669.43
2018-05-11T10:20:55.139Z,97667.48
2018-05-11T10:23:24.530Z,97674.79
2018-05-11T10:25:54.252Z,97669.27
2018-05-11T10:28:23.316Z,97668.31
2018-05-11T10:30:53.540Z,97673.56
2018-05-11T10:33:22.313Z,97678.30
2018-05-11T10:35:51.056Z,97674.00
2018-05-11T10:38:21.790Z,97676.33
2018-05-11T10:40:53.071Z,97676.34
2018-05-11T10:43:21.855Z,97670.89
2018-05-11T10:45:51.125Z,97676.36
2018-05-11T10:48:19.876Z,97677.31
2018-05-11T10:50:48.628Z,97679.91
2018-05-11T10:53:17.378Z,97681.52
2018-05-11T10:55:46.133Z,97678.46
2018-05-11T10:58:14.905Z,97677.30
2018-05-11T11:00:43.719Z,97676.98
2018-05-11T11:03:17.238Z,97678.77
2018-05-11T11:05:46.025Z,97677.08
2018-05-11T11:08:14.787Z,97670.53
2018-05-11T11:10:43.589Z,97671.67
2018-05-11T11:13:12.361Z,97673.61
2018-05-11T11:15:41.194Z,97678.00
2018-05-11T11:18:10.069Z,97671.08
2018-05-11T11:20:38.821Z,97671.86
2018-05-11T11:23:07.579Z,97668.09
2018-05-11T11:25:36.381Z,97667.55
2018-05-11T11:28:05.660Z,97667.97
2018-05-11T11:30:35.207Z,97667.97
2018-05-11T11:33:03.977Z,97668.63
2018-05-11T11:35:33.529Z,97662.55
2018-05-11T11:38:02.301Z,97660.70
2018-05-11T11:40:31.147Z,97652.34
2018-05-11T11:42:59.836Z,97655.61
2018-05-11T11:45:28.584Z,97659.22
2018-05-11T11:47:57.370Z,97657.50
2018-05-11T11:50:26.100Z,97645.52
2018-05-11T11:52:55.628Z,97648.80
2018-05-11T11:55:24.436Z,97642.52
2018-05-11T11:57:53.219Z,97644.48
2018-05-11T12:00:22.751Z,97638.96
2018-05-11T12:02:51.543Z,97634.16
2018-05-11T12:05:20.337Z,97633.88
2018-05-11T12:07:49.095Z,97637.09
2018-05-11T12:10:17.902Z,97628.28
2018-05-11T12:12:46.671Z,97632.13
2018-05-11T12:15:16.167Z,97629.48
2018-05-11T12:17:45.804Z,97626.84
2018-05-11T12:20:14.941Z,97625.22
2018-05-11T12:22:43.664Z,97617.40
2018-05-11T12:25:12.473Z,97620.68
2018-05-11T12:27:41.869Z,97611.75
2018-05-11T12:30:11.001Z,97610.04
2018-05-11T12:32:39.775Z,97614.29
2018-05-11T12:35:08.502Z,97606.41
2018-05-11T12:37:39.183Z,97602.48
2018-05-11T12:40:07.962Z,97605.02
2018-05-11T12:42:36.765Z,97605.41
2018-05-11T12:45:06.634Z,97606.02
2018-05-11T12:47:35.476Z,97599.73
2018-05-11T12:50:04.528Z,97600.64
2018-05-11T12:52:33.810Z,97597.33
2018-05-11T12:55:03.220Z,97594.03
2018-05-11T12:57:32.026Z,97585.06
2018-05-11T13:00:01.567Z,97590.34
2018-05-11T13:02:32.021Z,97585.91
2018-05-11T13:05:00.934Z,97583.75
2018-05-11T13:07:31.308Z,97574.55
2018-05-11T13:10:00.763Z,97575.58
2018-05-11T13:12:29.602Z,97567.20
2018-05-11T13:14:58.510Z,97563.95
2018-05-11T13:17:31.825Z,97566.92
2018-05-11T13:20:01.198Z,97562.22
2018-05-11T13:22:30.355Z,97567.80
2018-05-11T13:24:59.206Z,97564.72
2018-05-11T13:27:28.037Z,97560.78
2018-05-11T13:29:56.916Z,97560.66
2018-05-11T13:32:26.307Z,97552.30
2018-05-11T13:34:55.511Z,97555.11
2018-05-11T13:37:24.720Z,97552.25
2018-05-11T13:39:54.273Z,97546.83
2018-05-11T13:42:23.400Z,97553.34
2018-05-11T13:44:53.002Z,97542.16
2018-05-11T13:47:21.789Z,97540.32
2018-05-11T13:49:50.754Z,97539.59
2018-05-11T13:52:19.598Z,97538.52
2018-05-11T13:54:48.408Z,97525.98
2018-05-11T13:57:17.234Z,97529.90
2018-05-11T13:59:46.042Z,97522.37
2018-05-11T14:02:14.816Z,97526.87
2018-05-11T14:04:43.676Z,97519.62
2018-05-11T14:07:12.867Z,97519.97
2018-05-11T14:09:41.620Z,97519.33
2018-05-11T14:12:10.411Z,97524.39
2018-05-11T14:14:39.258Z,97516.00
2018-05-11T14:17:08.014Z,97511.25
2018-05-11T14:19:37.434Z,97517.50
2018-05-11T14:22:06.215Z,97512.77
2018-05-11T14:24:35.730Z,97512.34
2018-05-11T14:27:04.556Z,97519.18
2018-05-11T14:29:33.389Z,97519.62
2018-05-11T14:32:02.288Z,97519.33
2018-05-11T14:34:31.074Z,97519.42
2018-05-11T14:37:00.639Z,97518.20
2018-05-11T14:39:29.432Z,97520.06
2018-05-11T14:41:58.248Z,97511.67
2018-05-11T14:44:27.050Z,97512.67
2018-05-11T14:46:57.742Z,97502.95
2018-05-11T14:49:27.693Z,97507.50
2018-05-11T14:51:58.847Z,97506.55
2018-05-11T14:54:27.826Z,97510.82
2018-05-11T14:56:56.657Z,97508.13
2018-05-11T14:59:25.445Z,97507.54
2018-05-11T15:01:54.255Z,97512.41
2018-05-11T15:04:23.792Z,97513.77
2018-05-11T15:06:52.654Z,97508.08
2018-05-11T15:09:21.914Z,97505.55
2018-05-11T15:11:53.020Z,97503.45
2018-05-11T15:14:21.868Z,97510.20
2018-05-11T15:16:50.620Z,97510.78
2018-05-11T15:19:20.169Z,97510.77
2018-05-11T15:21:49.064Z,97511.84
2018-05-11T15:24:18.182Z,97510.30
2018-05-11T15:26:47.738Z,97505.47
2018-05-11T15:29:16.574Z,97503.84
2018-05-11T15:31:45.578Z,97498.77
2018-05-11T15:34:14.661Z,97496.31
2018-05-11T15:36:43.523Z,97501.91
2018-05-11T15:39:12.352Z,97499.09
2018-05-11T15:41:41.110Z,97498.28
2018-05-11T15:44:10.748Z,97498.16
2018-05-11T15:46:39.774Z,97497.66
2018-05-11T15:49:09.527Z,97500.20
2018-05-11T15:51:38.413Z,97499.53
2018-05-11T15:54:07.987Z,97502.18
2018-05-11T15:56:36.907Z,97496.56
2018-05-11T15:59:05.879Z,97493.23
2018-05-11T16:01:36.756Z,97497.62
2018-05-11T16:04:05.578Z,97497.19
2018-05-11T16:06:34.628Z,97495.84
2018-05-11T16:09:05.462Z,97498.52
2018-05-11T16:11:34.871Z,97501.59
2018-05-11T16:14:03.644Z,97493.72
2018-05-11T16:16:33.694Z,97497.11
2018-05-11T16:19:02.601Z,97496.22
2018-05-11T16:21:31.993Z,97500.64
2018-05-11T16:24:01.813Z,97495.61
2018-05-11T16:26:30.889Z,97497.34
2018-05-11T16:28:59.664Z,97499.79
2018-05-11T16:31:28.533Z,97498.95
2018-05-11T16:33:57.289Z,97506.99
2018-05-11T16:36:27.064Z,97504.22
2018-05-11T16:38:57.050Z,97500.30
2018-05-11T16:41:26.117Z,97507.00
2018-05-11T16:43:54.983Z,97505.16
2018-05-11T16:46:23.855Z,97509.47
2018-05-11T16:48:52.656Z,97508.81
2018-05-11T16:51:22.357Z,97506.83
2018-05-11T16:53:51.346Z,97507.23
2018-05-11T16:56:21.139Z,97509.53
2018-05-11T16:58:49.989Z,97502.81
2018-05-11T17:01:19.246Z,97504.94
2018-05-11T17:03:49.618Z,97510.16
2018-05-11T17:06:19.815Z,97508.61
2018-05-11T17:08:49.603Z,97506.29
2018-05-11T17:11:18.444Z,97512.08
2018-05-11T17:13:47.362Z,97514.67
2018-05-11T17:16:16.885Z,97508.72
2018-05-11T17:18:45.720Z,97522.05
2018-05-11T17:21:14.496Z,97503.23
2018-05-11T17:23:43.297Z,97512.12
2018-05-11T17:26:12.160Z,97515.61
2018-05-11T17:28:40.986Z,97513.21
2018-05-11T17:31:09.835Z,97511.88
2018-05-11T17:33:38.817Z,97513.23
2018-05-11T17:36:07.576Z,97508.78
2018-05-11T17:38:37.230Z,97508.24
2018-05-11T17:41:06.443Z,97508.24
2018-05-11T17:43:37.258Z,97511.47
2018-05-11T17:46:07.406Z,97504.23
2018-05-11T17:48:36.678Z,97507.55
2018-05-11T17:51:05.994Z,97511.48
2018-05-11T17:53:34.771Z,97515.92
2018-05-11T17:56:04.338Z,97508.81
2018-05-11T17:58:33.156Z,97516.71
2018-05-11T18:01:03.108Z,97515.60
2018-05-11T18:03:31.879Z,97517.61
2018-05-11T18:06:02.832Z,97512.25
2018-05-11T18:08:34.284Z,97515.73
2018-05-11T18:11:04.057Z,97505.71
2018-05-11T18:13:32.948Z,97516.55
2018-05-11T18:16:02.357Z,97515.87
2018-05-11T18:18:31.163Z,97522.16
2018-05-11T18:20:59.956Z,97517.32
2018-05-11T18:23:28.895Z,97521.45
2018-05-11T18:25:57.746Z,97516.47
2018-05-11T18:28:29.815Z,97516.48
2018-05-11T18:30:59.435Z,97525.58
2018-05-11T18:33:29.445Z,97529.99
2018-05-11T18:35:58.197Z,97527.66
2018-05-11T18:38:27.063Z,97535.92
2018-05-11T18:40:55.944Z,97531.75
2018-05-11T18:43:24.747Z,97527.70
2018-05-11T18:45:53.583Z,97531.16
2018-05-11T18:48:22.385Z,97532.63
2018-05-11T18:50:55.094Z,97536.06
2018-05-11T18:53:24.160Z,97533.27
2018-05-11T18:55:52.779Z,97538.22
2018-05-11T18:58:21.712Z,97537.80
2018-05-11T19:00:51.528Z,97540.42
2018-05-11T19:03:25.263Z,97544.95
2018-05-11T19:05:54.890Z,97549.09
2018-05-11T19:08:23.683Z,97550.87
2018-05-11T19:10:56.610Z,97551.45
2018-05-11T19:13:29.831Z,97555.53
2018-05-11T19:15:59.505Z,97552.75
2018-05-11T19:18:28.235Z,97562.47
2018-05-11T19:21:08.665Z,97561.82
2018-05-11T19:23:37.415Z,97563.94
2018-05-11T19:26:06.288Z,97570.09
2018-05-11T19:28:35.041Z,97572.64
2018-05-11T19:31:07.293Z,97565.91
2018-05-11T19:33:36.125Z,97565.55
2018-05-11T19:36:05.783Z,97565.89
2018-05-11T19:38:34.618Z,97573.84
2018-05-11T19:41:03.444Z,97572.20
2018-05-11T19:43:32.319Z,97569.39
2018-05-11T19:46:01.904Z,97581.88
2018-05-11T19:48:31.484Z,97584.15
2018-05-11T19:51:00.380Z,97577.63
2018-05-11T19:53:29.315Z,97579.34
2018-05-11T19:55:58.418Z,97577.76
2018-05-11T19:58:27.425Z,97580.80
2018-05-11T20:00:56.877Z,97586.42
2018-05-11T20:03:26.484Z,97594.37
2018-05-11T20:05:55.315Z,97592.28
2018-05-11T20:08:24.161Z,97595.11
2018-05-11T20:10:53.014Z,97593.55
2018-05-11T20:13:21.804Z,97585.94
2018-05-11T20:15:50.609Z,97585.00
2018-05-11T20:18:19.392Z,97593.20
2018-05-11T20:20:48.124Z,97593.37
2018-05-11T20:23:17.713Z,97598.44
2018-05-11T20:25:46.442Z,97595.95
2018-05-11T20:28:15.269Z,97604.67
2018-05-11T20:30:44.015Z,97604.79
2018-05-11T20:33:12.908Z,97606.53
2018-05-11T20:35:41.659Z,97604.94
2018-05-11T20:38:10.533Z,97605.70
2018-05-11T20:40:40.433Z,97605.87
2018-05-11T20:43:10.363Z,97602.78
2018-05-11T20:45:39.164Z,97610.63
2018-05-11T20:48:07.983Z,97612.42
2018-05-11T20:50:36.853Z,97617.98
2018-05-11T20:53:05.597Z,97617.77
2018-05-11T20:55:34.703Z,97620.19
2018-05-11T20:58:03.495Z,97626.62
2018-05-11T21:00:32.238Z,97626.11
2018-05-11T21:03:01.754Z,97625.80
2018-05-11T21:05:30.566Z,97621.16
2018-05-11T21:07:59.298Z,97625.13
2018-05-11T21:10:28.090Z,97611.05
2018-05-11T21:12:56.930Z,97614.09
2018-05-11T21:15:25.655Z,97616.23
2018-05-11T21:17:54.432Z,97619.55
2018-05-11T21:20:23.199Z,97615.75
2018-05-11T21:22:51.935Z,97615.75
2018-05-11T21:25:21.181Z,97616.52
2018-05-11T21:27:50.061Z,97609.09
2018-05-11T21:30:18.799Z,97614.52
2018-05-11T21:32:47.565Z,97613.13
2018-05-11T21:35:16.501Z,97615.48
2018-05-11T21:37:45.245Z,97613.02
2018-05-11T21:40:14.017Z,97607.00
2018-05-11T21:42:42.978Z,97602.54
2018-05-11T21:45:11.851Z,97605.08
2018-05-11T21:47:41.089Z,97603.12
2018-05-11T21:50:10.964Z,97601.66
2018-05-11T21:52:39.722Z,97609.48
2018-05-11T21:55:09.277Z,97606.32
2018-05-11T21:57:38.427Z,97600.69
2018-05-11T22:00:07.201Z,97607.02
2018-05-11T22:02:35.986Z,97598.65
2018-05-11T22:05:04.780Z,97598.95
2018-05-11T22:07:33.513Z,97603.20
2018-05-11T22:10:02.288Z,97607.93
2018-05-11T22:12:31.059Z,97607.22
2018-05-11T22:14:59.806Z,97606.25
2018-05-11T22:17:29.332Z,97599.52
2018-05-11T22:19:58.123Z,97600.73
2018-05-11T22:22:26.849Z,97604.47
2018-05-11T22:24:55.670Z,97608.21
2018-05-11T22:27:25.198Z,97607.13
2018-05-11T22:29:54.031Z,97604.92
2018-05-11T22:32:22.797Z,97603.41
2018-05-11T22:34:51.596Z,97603.88
2018-05-11T22:37:20.396Z,97598.36
2018-05-11T22:39:49.206Z,97597.50
2018-05-11T22:42:18.094Z,97598.77
2018-05-11T22:44:46.862Z,97601.49
2018-05-11T22:47:15.689Z,97593.78
2018-05-11T22:49:44.477Z,97597.36
2018-05-11T22:52:13.316Z,97590.45
2018-05-11T22:54:42.113Z,97593.70
2018-05-11T22:57:11.789Z,97592.92
2018-05-11T22:59:42.368Z,97589.08
2018-05-11T23:02:11.728Z,97585.05
2018-05-11T23:04:41.590Z,97590.66
2018-05-11T23:07:10.346Z,97582.36
2018-05-11T23:09:39.190Z,97582.22
2018-05-11T23:12:08.725Z,97577.75
2018-05-11T23:14:37.518Z,97581.31
2018-05-11T23:17:06.338Z,97579.34
2018-05-11T23:19:35.134Z,97575.87
2018-05-11T23:22:03.934Z,97577.35
2018-05-11T23:24:32.690Z,97572.77
2018-05-11T23:27:01.504Z,97568.73
2018-05-11T23:29:30.257Z,97562.78
2018-05-11T23:31:59.746Z,97561.48
2018-05-11T23:34:28.532Z,97557.83
2018-05-11T23:36:58.115Z,97557.05
2018-05-11T23:39:27.854Z,97556.41
2018-05-11T23:41:56.627Z,97552.41
2018-05-11T23:44:25.426Z,97550.19
2018-05-11T23:46:54.190Z,97551.00
2018-05-11T23:49:23.109Z,97556.34
2018-05-11T23:51:51.841Z,97563.59
2018-05-11T23:54:20.600Z,97560.71
2018-05-11T23:56:49.386Z,97559.55
2018-05-11T23:59:19.017Z,97564.39
